Weather History for Monroe, MI

Change the Weather History Date:

Thursday, December 20, 2012

  Actual Average Record
Temperature  
Mean Temperature 42 °F -  
Max Temperature 50 °F 34 °F 60 °F (1957)
Min Temperature 35 °F 22 °F -2 °F (1963)
Degree Days  
Heating Degree Days 22    
Moisture  
Dew Point 39 °F    
Average Humidity 87    
Maximum Humidity 100    
Minimum Humidity 61    
Precipitation  
Precipitation 0.00 in - - ()
Sea Level Pressure  
Sea Level Pressure 29.52 in    
Wind  
Wind Speed 14 mph (SE)    
Max Wind Speed 30 mph    
Max Gust Speed 38 mph    
Visibility 8 miles    
Events Rain , Snow    
Averages and records for this station are not official NWS values.
T = Trace of Precipitation, MM = Missing Value Source: NWS Daily Summary

Daily Weather History Graph

Daily Weather History Graph

Search for Another Location

Airport:

Trip Planner

Search our weather history database for the weather conditions in past years. The results will help you decide how hot, cold, wet, or windy it might be!

Date:

Astronomy

Dec. 20, 2012 Rise Set
Actual Time 7:57 AM EST 5:05 PM EST
Civil Twilight 7:26 AM EST 5:37 PM EST
Nautical Twilight 6:51 AM EST 6:12 PM EST
Astronomical Twilight 6:17 AM EST 6:46 PM EST
Moon 12:27 PM EST (12/20) 12:38 AM EST (12/20)
Length of Visible Light 10h 10m
Length of Day
9h 07m
First Quarter, 55% of the Moon is Illuminated
Dec 20
First Quarter
Dec 28
Full
Jan 4
Last Quarter
Jan 11
New
Jan 18
First Quarter

Hourly Weather History & Observations

Time (EST) Temp. Windchill Dew Point Humidity Pressure Visibility Wind Dir Wind Speed Gust Speed Precip Events Conditions
12:15 AM 39.2 °F 33.6 °F 35.6 °F 87% 30.06 in 10.0 mi ESE 8.1 mph - N/A   Overcast
12:35 AM 39.2 °F 33.0 °F 35.6 °F 87% 30.03 in 10.0 mi East 9.2 mph - N/A   Overcast
12:56 AM 39.2 °F 32.5 °F 35.6 °F 87% 30.01 in 10.0 mi East 10.4 mph - N/A   Overcast
1:11 AM 39.2 °F 33.6 °F 35.6 °F 87% 30.01 in 10.0 mi ESE 8.1 mph - N/A   Overcast
1:33 AM 41.0 °F 35.8 °F 35.6 °F 81% 30.01 in 10.0 mi ESE 8.1 mph 11.5 mph N/A   Overcast
2:35 AM 41.0 °F 35.2 °F 37.4 °F 87% 30.00 in 10.0 mi ESE 9.2 mph 17.3 mph N/A   Mostly Cloudy
2:55 AM 41.0 °F 33.9 °F 37.4 °F 87% 29.97 in 10.0 mi East 12.7 mph 17.3 mph N/A   Mostly Cloudy
3:15 AM 41.0 °F 33.9 °F 37.4 °F 87% 29.94 in 7.0 mi East 12.7 mph 20.7 mph N/A   Overcast
3:36 AM 41.0 °F 33.5 °F 37.4 °F 87% 29.94 in 7.0 mi ESE 13.8 mph 20.7 mph N/A   Overcast
3:51 AM 41.0 °F 33.9 °F 37.4 °F 87% 29.93 in 7.0 mi ESE 12.7 mph 21.9 mph N/A   Overcast
4:11 AM 41.0 °F 32.5 °F 37.4 °F 87% 29.91 in 7.0 mi ESE 17.3 mph 23.0 mph N/A   Overcast
4:31 AM 41.0 °F 32.5 °F 37.4 °F 87% 29.87 in 7.0 mi East 17.3 mph 24.2 mph N/A   Mostly Cloudy
4:51 AM 41.0 °F 32.8 °F 37.4 °F 87% 29.85 in 7.0 mi East 16.1 mph 21.9 mph N/A   Mostly Cloudy
5:11 AM 42.8 °F 34.8 °F 37.4 °F 81% 29.84 in 10.0 mi ESE 17.3 mph 26.5 mph N/A   Overcast
5:31 AM 41.0 °F 33.1 °F 35.6 °F 81% 29.84 in 10.0 mi East 15.0 mph 27.6 mph N/A   Overcast
5:51 AM 41.0 °F 33.9 °F 37.4 °F 87% 29.85 in 10.0 mi East 12.7 mph 21.9 mph N/A   Light Drizzle
6:11 AM 41.0 °F 33.9 °F 37.4 °F 87% 29.84 in 7.0 mi East 12.7 mph 21.9 mph N/A Rain Light Rain
6:52 AM 41.0 °F 32.2 °F 37.4 °F 87% 29.81 in 5.0 mi East 18.4 mph - N/A Rain Light Rain
7:12 AM 41.0 °F 32.8 °F 37.4 °F 87% 29.77 in 5.0 mi East 16.1 mph 23.0 mph N/A Rain Light Rain
7:32 AM 41.0 °F 33.5 °F 37.4 °F 87% 29.74 in 7.0 mi East 13.8 mph 28.8 mph N/A   Mostly Cloudy
7:52 AM 41.0 °F 33.5 °F 37.4 °F 87% 29.73 in 7.0 mi East 13.8 mph 26.5 mph N/A   Overcast
8:12 AM 41.0 °F 31.9 °F 37.4 °F 87% 29.71 in 7.0 mi East 19.6 mph 26.5 mph N/A   Scattered Clouds
8:32 AM 41.0 °F 32.5 °F 37.4 °F 87% 29.71 in 7.0 mi East 17.3 mph 28.8 mph N/A   Scattered Clouds
8:52 AM 42.8 °F 35.4 °F 37.4 °F 81% 29.69 in 7.0 mi East 15.0 mph 26.5 mph N/A   Scattered Clouds
9:12 AM 42.8 °F 34.5 °F 37.4 °F 81% 29.66 in 7.0 mi East 18.4 mph 26.5 mph N/A   Mostly Cloudy
9:32 AM 42.8 °F 34.0 °F 37.4 °F 81% 29.63 in 10.0 mi East 20.7 mph 26.5 mph N/A   Mostly Cloudy
9:53 AM 42.8 °F 34.0 °F 37.4 °F 81% 29.61 in 10.0 mi East 20.7 mph 28.8 mph N/A   Mostly Cloudy
10:13 AM 42.8 °F 34.0 °F 37.4 °F 81% 29.59 in 10.0 mi East 20.7 mph 32.2 mph N/A   Mostly Cloudy
10:33 AM 42.8 °F 35.8 °F 37.4 °F 81% 29.62 in 10.0 mi ESE 13.8 mph 24.2 mph N/A   Overcast
10:53 AM 42.8 °F 35.4 °F 37.4 °F 81% 29.60 in 10.0 mi East 15.0 mph 24.2 mph N/A   Overcast
11:13 AM 42.8 °F 36.2 °F 37.4 °F 81% 29.58 in 5.0 mi ESE 12.7 mph 18.4 mph N/A Rain Light Rain
11:33 AM 42.8 °F 37.0 °F 39.2 °F 87% 29.56 in 5.0 mi ESE 10.4 mph 17.3 mph N/A Rain Rain
11:53 AM 42.8 °F 35.8 °F 39.2 °F 87% 29.54 in 4.0 mi ESE 13.8 mph 23.0 mph N/A Rain Rain
12:13 PM 41.0 °F 32.8 °F 39.2 °F 93% 29.52 in 3.0 mi ESE 16.1 mph 21.9 mph N/A Rain Rain
12:33 PM 41.0 °F 32.2 °F 39.2 °F 93% 29.49 in 2.5 mi ESE 18.4 mph 24.2 mph N/A Rain Rain
12:54 PM 42.8 °F 35.1 °F 39.2 °F 87% 29.47 in 2.0 mi ESE 16.1 mph 24.2 mph N/A Rain Rain
1:14 PM 42.8 °F 35.4 °F 41.0 °F 93% 29.45 in 3.0 mi ESE 15.0 mph 19.6 mph N/A Rain Rain
1:34 PM 42.8 °F 35.1 °F 42.8 °F 100% 29.41 in 3.0 mi ESE 16.1 mph 23.0 mph N/A Rain Light Rain
1:54 PM 42.8 °F 35.4 °F 42.8 °F 100% 29.40 in 3.0 mi ESE 15.0 mph 21.9 mph N/A Rain Light Rain
2:14 PM 42.8 °F 33.8 °F 42.8 °F 100% 29.27 in 2.5 mi East 21.9 mph 31.1 mph N/A Rain Rain
2:34 PM 42.8 °F 35.1 °F 42.8 °F 100% 29.24 in 5.0 mi ESE 16.1 mph 31.1 mph N/A Rain Light Rain
2:54 PM 44.6 °F 36.4 °F 42.8 °F 93% 29.28 in 10.0 mi SE 20.7 mph 31.1 mph N/A   Overcast
3:14 PM 44.6 °F 37.2 °F 42.8 °F 93% 29.27 in 10.0 mi SE 17.3 mph 27.6 mph N/A Rain Light Rain
3:34 PM 46.4 °F 39.2 °F 44.6 °F 93% 29.27 in 10.0 mi SE 18.4 mph 25.3 mph N/A Rain Light Rain
3:54 PM 44.6 °F 38.4 °F 42.8 °F 93% 29.26 in 10.0 mi SE 12.7 mph - N/A Rain Light Rain
4:15 PM 46.4 °F 39.5 °F 44.6 °F 93% 29.23 in 10.0 mi SE 17.3 mph 21.9 mph N/A Rain Light Rain
4:55 PM 46.4 °F 40.7 °F 44.6 °F 93% 29.20 in 7.0 mi SE 12.7 mph 20.7 mph N/A Rain Light Rain
5:15 PM 46.4 °F 40.1 °F 44.6 °F 93% 29.20 in 7.0 mi SE 15.0 mph 21.9 mph N/A   Light Drizzle
5:35 PM 46.4 °F 41.1 °F 44.6 °F 93% 29.19 in 10.0 mi SSE 11.5 mph - N/A   Overcast
5:55 PM 48.2 °F - 46.4 °F 93% 29.18 in 10.0 mi SSE 11.5 mph 18.4 mph N/A   Overcast
6:15 PM 48.2 °F - 46.4 °F 93% 29.17 in 10.0 mi SSE 15.0 mph - N/A   Overcast
6:35 PM 50.0 °F - 46.4 °F 87% 29.16 in 10.0 mi South 13.8 mph 20.7 mph N/A   Overcast
6:55 PM 48.2 °F - 44.6 °F 87% 29.19 in 7.0 mi WSW 29.9 mph 38.0 mph N/A Rain Rain
7:15 PM 46.4 °F 39.8 °F 42.8 °F 87% 29.18 in 10.0 mi SSW 16.1 mph 23.0 mph N/A Rain Light Rain
7:36 PM 46.4 °F 40.4 °F 42.8 °F 87% 29.19 in 10.0 mi SSW 13.8 mph 21.9 mph N/A Rain Light Rain
7:51 PM 46.4 °F 40.7 °F 42.8 °F 87% 29.19 in 10.0 mi SSW 12.7 mph - N/A   Drizzle
8:11 PM 44.6 °F 35.5 °F 39.2 °F 81% 29.21 in 7.0 mi WSW 25.3 mph 35.7 mph N/A Rain Light Rain
8:31 PM 44.6 °F 37.4 °F 39.2 °F 81% 29.22 in 10.0 mi SW 16.1 mph 24.2 mph N/A Rain Light Rain
8:51 PM 42.8 °F 36.6 °F 37.4 °F 81% 29.22 in 10.0 mi SW 11.5 mph 20.7 mph N/A   Light Drizzle
9:11 PM 42.8 °F 34.5 °F 35.6 °F 76% 29.23 in 10.0 mi SSW 18.4 mph 24.2 mph N/A   Overcast
9:31 PM 42.8 °F 34.0 °F 30.2 °F 61% 29.23 in 10.0 mi SW 20.7 mph 31.1 mph N/A   Overcast
9:51 PM 39.2 °F 30.2 °F 32.0 °F 75% 29.24 in 7.0 mi SW 17.3 mph 32.2 mph N/A   Drizzle
10:11 PM 37.4 °F 28.2 °F 33.8 °F 87% 29.24 in 10.0 mi SSW 16.1 mph 19.6 mph N/A   Overcast
10:32 PM 37.4 °F 26.6 °F 33.8 °F 87% 29.24 in 10.0 mi South 21.9 mph 29.9 mph N/A   Drizzle
10:52 PM 35.6 °F 26.2 °F 33.8 °F 93% 29.23 in 10.0 mi SSW 15.0 mph 28.8 mph N/A Rain Light Rain
11:12 PM 35.6 °F 27.1 °F 32.0 °F 87% 29.23 in 10.0 mi SSW 12.7 mph 17.3 mph N/A Snow Light Snow
11:32 PM 37.4 °F 27.2 °F 30.2 °F 75% 29.22 in 10.0 mi SSW 19.6 mph 27.6 mph N/A Snow Light Snow
11:52 PM 35.6 °F 24.8 °F 32.0 °F 87% 29.21 in 5.0 mi SSW 19.6 mph 26.5 mph N/A Snow Light Snow